createdAt,value
2022-08-26T00:01:29.983Z,21.20
2022-08-26T00:03:56.993Z,19.73
2022-08-26T00:06:26.270Z,22.15
2022-08-26T00:08:53.362Z,31.73
2022-08-26T00:11:26.854Z,56.58
2022-08-26T00:13:57.674Z,37.35
2022-08-26T00:16:28.126Z,20.33
2022-08-26T00:18:56.040Z,25.23
2022-08-26T00:21:22.810Z,21.05
2022-08-26T00:23:50.429Z,22.65
2022-08-26T00:26:17.245Z,22.05
2022-08-26T00:28:44.467Z,20.50
2022-08-26T00:31:11.486Z,19.60
2022-08-26T00:33:39.710Z,20.33
2022-08-26T00:36:09.365Z,26.27
2022-08-26T00:38:46.589Z,23.80
2022-08-26T00:41:13.729Z,23.67
2022-08-26T00:43:47.446Z,21.00
2022-08-26T00:46:20.557Z,29.77
2022-08-26T00:51:24.414Z,20.92
2022-08-26T00:54:06.045Z,21.45
2022-08-26T00:56:44.545Z,20.05
2022-08-26T00:59:14.332Z,22.52
2022-08-26T01:01:44.218Z,23.70
2022-08-26T01:04:15.540Z,18.73
2022-08-26T01:06:42.546Z,21.15
2022-08-26T01:09:11.822Z,26.65
2022-08-26T01:11:38.914Z,27.52
2022-08-26T01:14:06.889Z,21.52
2022-08-26T01:17:01.330Z,21.17
2022-08-26T01:19:37.625Z,19.73
2022-08-26T01:22:11.357Z,19.73
2022-08-26T01:24:38.882Z,26.75
2022-08-26T01:27:08.794Z,23.33
2022-08-26T01:29:36.783Z,22.33
2022-08-26T01:32:05.106Z,26.58
2022-08-26T01:34:36.167Z,21.67
2022-08-26T01:37:05.383Z,21.20
2022-08-26T01:39:33.771Z,21.90
2022-08-26T01:42:03.227Z,22.73
2022-08-26T01:44:34.513Z,25.38
2022-08-26T01:47:02.010Z,24.40
2022-08-26T01:49:35.729Z,21.70
2022-08-26T01:52:03.605Z,20.42
2022-08-26T01:54:31.135Z,27.92
2022-08-26T01:56:58.758Z,24.15
2022-08-26T01:59:25.573Z,20.77
2022-08-26T02:01:53.141Z,22.33
2022-08-26T02:04:29.564Z,21.40
2022-08-26T02:06:57.204Z,26.92
2022-08-26T02:09:26.785Z,25.20
2022-08-26T02:11:53.722Z,19.35
2022-08-26T02:14:27.074Z,16.17
2022-08-26T02:16:55.122Z,24.40
2022-08-26T02:19:31.381Z,26.42
2022-08-26T02:22:00.538Z,26.00
2022-08-26T02:24:30.252Z,28.33
2022-08-26T02:26:58.117Z,21.92
2022-08-26T02:29:36.324Z,29.92
2022-08-26T02:32:10.081Z,27.67
2022-08-26T02:34:37.653Z,28.95
2022-08-26T02:37:07.349Z,22.88
2022-08-26T02:39:35.378Z,29.40
2022-08-26T02:42:02.277Z,25.52
2022-08-26T02:44:29.134Z,27.35
2022-08-26T02:46:56.043Z,24.08
2022-08-26T02:49:27.438Z,26.63
2022-08-26T02:51:54.342Z,24.55
2022-08-26T02:54:21.466Z,25.42
2022-08-26T02:56:48.700Z,28.38
2022-08-26T02:59:15.517Z,24.27
2022-08-26T03:01:42.718Z,28.95
2022-08-26T03:04:11.745Z,23.98
2022-08-26T03:06:40.769Z,23.95
2022-08-26T03:09:08.997Z,21.75
2022-08-26T03:11:40.243Z,21.27
2022-08-26T03:14:08.382Z,22.73
2022-08-26T03:16:36.387Z,24.00
2022-08-26T03:19:09.057Z,21.02
2022-08-26T03:21:38.021Z,23.35
2022-08-26T03:24:05.265Z,33.42
2022-08-26T03:26:36.213Z,28.45
2022-08-26T03:29:22.845Z,25.00
2022-08-26T03:31:49.884Z,22.88
2022-08-26T03:34:18.437Z,24.75
2022-08-26T03:36:46.266Z,25.38
2022-08-26T03:39:13.718Z,33.05
2022-08-26T03:41:41.163Z,28.25
2022-08-26T03:44:10.873Z,26.35
2022-08-26T03:46:39.295Z,25.27
2022-08-26T03:49:08.052Z,25.13
2022-08-26T03:51:38.922Z,26.45
2022-08-26T03:54:06.674Z,27.30
2022-08-26T03:56:36.483Z,25.80
2022-08-26T03:59:04.065Z,21.15
2022-08-26T04:05:51.981Z,22.73
2022-08-26T04:08:19.129Z,20.90
2022-08-26T04:10:45.946Z,23.13
2022-08-26T04:13:12.761Z,27.75
2022-08-26T04:15:39.464Z,26.92
2022-08-26T04:22:46.099Z,26.83
2022-08-26T04:25:13.058Z,26.58
2022-08-26T04:27:44.045Z,26.67
2022-08-26T04:30:11.269Z,28.30
2022-08-26T04:32:38.579Z,25.25
2022-08-26T04:35:06.982Z,28.00
2022-08-26T04:37:35.820Z,23.85
2022-08-26T04:40:02.682Z,29.40
2022-08-26T04:42:33.226Z,24.23
2022-08-26T04:45:01.057Z,26.02
2022-08-26T04:47:32.563Z,26.73
2022-08-26T04:49:59.989Z,26.30
2022-08-26T04:52:26.653Z,30.95
2022-08-26T04:54:54.885Z,22.67
2022-08-26T04:57:23.177Z,25.25
2022-08-26T04:59:50.017Z,27.23
2022-08-26T05:02:16.708Z,31.58
2022-08-26T05:04:43.807Z,32.85
2022-08-26T05:07:10.703Z,29.17
2022-08-26T05:09:40.756Z,31.40
2022-08-26T05:12:07.981Z,31.38
2022-08-26T05:14:36.102Z,26.08
2022-08-26T05:17:03.568Z,29.42
2022-08-26T05:19:31.494Z,30.88
2022-08-26T05:21:59.399Z,37.75
2022-08-26T05:24:26.245Z,27.38
2022-08-26T05:26:54.038Z,31.60
2022-08-26T05:29:23.086Z,27.63
2022-08-26T05:32:18.981Z,28.60
2022-08-26T05:34:45.623Z,30.02
2022-08-26T05:37:13.604Z,33.20
2022-08-26T05:39:41.238Z,31.35
2022-08-26T05:42:10.138Z,32.45
2022-08-26T05:44:54.009Z,32.70
2022-08-26T05:47:23.586Z,29.83
2022-08-26T05:49:51.636Z,33.00
2022-08-26T05:52:19.105Z,29.33
2022-08-26T05:54:45.961Z,31.23
2022-08-26T05:57:14.692Z,33.60
2022-08-26T05:59:41.363Z,35.85
2022-08-26T06:02:09.172Z,33.22
2022-08-26T06:04:35.882Z,37.15
2022-08-26T06:07:05.497Z,29.00
2022-08-26T06:09:36.895Z,29.40
2022-08-26T06:12:05.453Z,31.80
2022-08-26T06:14:32.142Z,29.30
2022-08-26T06:16:58.912Z,35.97
2022-08-26T06:19:25.616Z,30.60
2022-08-26T06:22:22.321Z,31.67
2022-08-26T06:25:09.827Z,32.42
2022-08-26T06:27:37.773Z,32.15
2022-08-26T06:30:04.779Z,34.83
2022-08-26T06:32:31.517Z,38.35
2022-08-26T06:35:03.309Z,35.90
2022-08-26T06:38:47.248Z,28.52
2022-08-26T06:41:17.481Z,37.00
2022-08-26T06:44:35.626Z,33.47
2022-08-26T06:47:29.661Z,39.38
2022-08-26T06:50:47.569Z,34.53
2022-08-26T06:54:11.828Z,38.38
2022-08-26T07:01:11.232Z,40.95
2022-08-26T07:04:32.932Z,38.60
2022-08-26T07:07:04.094Z,34.70
2022-08-26T07:09:35.682Z,35.88
2022-08-26T07:12:04.514Z,33.15
2022-08-26T07:14:31.702Z,38.40
2022-08-26T07:17:49.347Z,35.85
2022-08-26T07:20:16.123Z,39.95
2022-08-26T07:22:43.795Z,36.47
2022-08-26T07:25:11.345Z,34.35
2022-08-26T07:27:38.626Z,37.38
2022-08-26T07:30:06.761Z,46.08
2022-08-26T07:32:33.586Z,32.95
2022-08-26T07:35:00.523Z,32.42
2022-08-26T07:37:27.212Z,36.88
2022-08-26T07:39:59.376Z,33.40
2022-08-26T07:42:26.623Z,28.25
2022-08-26T07:44:53.772Z,30.20
2022-08-26T07:47:25.613Z,36.22
2022-08-26T07:49:54.419Z,29.63
2022-08-26T07:52:25.936Z,27.25
2022-08-26T07:54:57.991Z,31.52
2022-08-26T07:57:26.145Z,28.55
2022-08-26T07:59:53.929Z,30.30
2022-08-26T08:02:22.810Z,32.78
2022-08-26T08:04:49.516Z,32.50
2022-08-26T08:07:16.275Z,28.90
2022-08-26T08:09:42.951Z,30.40
2022-08-26T08:12:14.206Z,33.70
2022-08-26T08:14:42.087Z,37.50
2022-08-26T08:17:08.962Z,33.05
2022-08-26T08:19:38.983Z,33.50
2022-08-26T08:22:06.874Z,33.28
2022-08-26T08:24:44.740Z,37.42
2022-08-26T08:27:11.395Z,32.15
2022-08-26T08:29:38.757Z,25.38
2022-08-26T08:32:05.605Z,34.00
2022-08-26T08:37:08.736Z,28.23
2022-08-26T08:39:37.598Z,39.05
2022-08-26T08:42:25.707Z,31.70
2022-08-26T08:44:53.174Z,32.35
2022-08-26T08:47:45.273Z,27.90
2022-08-26T08:50:20.822Z,37.93
2022-08-26T08:52:55.095Z,30.45
2022-08-26T08:55:22.609Z,30.90
2022-08-26T08:58:04.996Z,35.83
2022-08-26T09:00:44.950Z,30.50
2022-08-26T09:03:23.524Z,36.15
2022-08-26T09:05:53.246Z,37.15
2022-08-26T09:08:27.344Z,51.90
2022-08-26T09:10:57.856Z,42.88
2022-08-26T09:13:27.161Z,44.25
2022-08-26T09:16:19.193Z,33.85
2022-08-26T09:21:25.131Z,41.67
2022-08-26T09:23:55.312Z,39.97
2022-08-26T09:26:40.850Z,32.67
2022-08-26T09:31:52.229Z,28.80
2022-08-26T09:34:24.805Z,40.63
2022-08-26T09:36:54.123Z,31.05
2022-08-26T09:39:28.187Z,36.05
2022-08-26T09:42:11.299Z,38.15
2022-08-26T09:45:08.362Z,35.72
2022-08-26T09:47:52.443Z,34.45
2022-08-26T09:53:12.633Z,31.67
2022-08-26T09:55:42.522Z,33.22
2022-08-26T09:58:16.462Z,29.90
2022-08-26T10:00:57.590Z,29.92
2022-08-26T10:03:32.580Z,41.60
2022-08-26T10:06:04.405Z,42.33
2022-08-26T10:08:31.062Z,32.97
2022-08-26T10:10:59.855Z,36.78
2022-08-26T10:13:33.632Z,34.90
2022-08-26T10:16:06.153Z,42.22
2022-08-26T10:18:41.825Z,29.88
2022-08-26T10:21:22.075Z,41.92
2022-08-26T10:23:51.812Z,26.05
2022-08-26T10:26:31.018Z,35.40
2022-08-26T10:29:06.836Z,37.38
2022-08-26T10:31:40.686Z,44.83
2022-08-26T10:34:08.581Z,42.42
2022-08-26T10:39:58.537Z,36.53
2022-08-26T10:42:33.034Z,30.20
2022-08-26T10:45:05.545Z,36.13
2022-08-26T10:48:05.334Z,38.85
2022-08-26T10:50:35.516Z,35.33
2022-08-26T10:53:11.581Z,37.53
2022-08-26T10:55:50.897Z,30.27
2022-08-26T10:58:56.269Z,38.83
2022-08-26T11:01:45.409Z,32.67
2022-08-26T11:04:27.281Z,29.13
2022-08-26T11:07:32.247Z,29.60
2022-08-26T11:10:01.422Z,28.95
2022-08-26T11:12:37.501Z,23.73
2022-08-26T11:15:08.727Z,23.65
2022-08-26T11:17:44.371Z,20.70
2022-08-26T11:20:28.437Z,21.02
2022-08-26T11:22:56.325Z,21.75
2022-08-26T11:25:30.000Z,33.67
2022-08-26T11:27:59.585Z,25.38
2022-08-26T11:30:36.819Z,40.70
2022-08-26T11:33:03.593Z,24.92
2022-08-26T11:35:34.121Z,36.40
2022-08-26T11:40:45.119Z,36.10
2022-08-26T11:43:20.465Z,44.88
2022-08-26T11:46:11.202Z,44.83
2022-08-26T11:48:42.755Z,38.22
2022-08-26T11:51:21.870Z,37.58
2022-08-26T11:53:48.674Z,35.42
2022-08-26T11:56:28.794Z,37.97
2022-08-26T11:59:00.391Z,36.22
2022-08-26T12:01:32.562Z,38.22
2022-08-26T12:03:59.896Z,29.85
2022-08-26T12:06:31.648Z,35.78
2022-08-26T12:09:00.477Z,34.22
2022-08-26T12:11:30.947Z,34.92
2022-08-26T12:14:01.770Z,30.80
2022-08-26T12:16:32.552Z,37.35
2022-08-26T12:19:00.012Z,29.08
2022-08-26T12:21:34.611Z,33.33
2022-08-26T12:24:03.341Z,36.90
2022-08-26T12:26:36.099Z,36.53
2022-08-26T12:29:10.778Z,38.65
2022-08-26T12:31:47.879Z,47.38
2022-08-26T12:34:17.567Z,39.55
2022-08-26T12:36:48.453Z,35.72
2022-08-26T12:39:24.060Z,44.38
2022-08-26T12:41:55.691Z,41.35
2022-08-26T12:44:37.615Z,40.67
2022-08-26T12:47:15.931Z,36.00
2022-08-26T12:49:59.912Z,40.70
2022-08-26T12:52:31.421Z,38.22
2022-08-26T12:55:19.657Z,36.53
2022-08-26T12:57:47.411Z,32.67
2022-08-26T13:00:34.862Z,34.17
2022-08-26T13:03:02.037Z,31.52
2022-08-26T13:05:35.406Z,35.03
2022-08-26T13:08:10.422Z,38.42
2022-08-26T13:10:41.083Z,35.35
2022-08-26T13:13:07.916Z,41.45
2022-08-26T13:15:34.739Z,37.13
2022-08-26T13:18:03.077Z,34.97
2022-08-26T13:20:30.598Z,41.88
2022-08-26T13:22:58.778Z,29.50
2022-08-26T13:25:26.255Z,34.78
2022-08-26T13:27:55.163Z,43.67
2022-08-26T13:30:21.988Z,33.70
2022-08-26T13:32:58.981Z,40.15
2022-08-26T13:35:26.091Z,39.72
2022-08-26T13:37:53.769Z,41.53
2022-08-26T13:40:21.567Z,38.47
2022-08-26T13:42:49.793Z,36.63
2022-08-26T13:45:17.141Z,35.38
2022-08-26T13:47:44.534Z,34.42
2022-08-26T13:50:11.169Z,33.38
2022-08-26T13:52:37.845Z,34.35
2022-08-26T13:55:05.223Z,28.77
2022-08-26T13:57:31.952Z,31.17
2022-08-26T13:59:59.352Z,32.53
2022-08-26T14:02:27.386Z,21.02
2022-08-26T14:04:55.176Z,27.83
2022-08-26T14:07:22.417Z,35.08
2022-08-26T14:09:49.101Z,32.60
2022-08-26T14:12:16.439Z,27.52
2022-08-26T14:14:43.446Z,29.60
2022-08-26T14:17:10.098Z,27.38
2022-08-26T14:19:36.784Z,25.85
2022-08-26T14:22:04.050Z,27.92
2022-08-26T14:24:30.887Z,31.35
2022-08-26T14:26:57.705Z,27.65
2022-08-26T14:29:24.433Z,29.30
2022-08-26T14:31:51.116Z,27.30
2022-08-26T14:34:18.745Z,26.17
2022-08-26T14:36:45.431Z,20.30
2022-08-26T14:39:14.223Z,23.23
2022-08-26T14:41:55.013Z,22.25
2022-08-26T14:44:28.285Z,26.23
2022-08-26T14:46:55.462Z,20.85
2022-08-26T14:49:24.314Z,26.88
2022-08-26T14:51:53.549Z,28.40
2022-08-26T14:54:24.074Z,34.65
2022-08-26T14:56:53.909Z,27.98
2022-08-26T14:59:30.206Z,24.90
2022-08-26T15:02:00.370Z,24.65
2022-08-26T15:04:27.487Z,24.63
2022-08-26T15:06:56.202Z,28.38
2022-08-26T15:09:51.915Z,29.17
2022-08-26T15:12:18.575Z,28.70
2022-08-26T15:14:47.309Z,34.55
2022-08-26T15:17:13.976Z,33.40
2022-08-26T15:19:40.636Z,30.08
2022-08-26T15:22:07.277Z,32.33
2022-08-26T15:24:34.052Z,27.67
2022-08-26T15:27:00.731Z,33.40
2022-08-26T15:29:27.404Z,43.17
2022-08-26T15:31:57.206Z,56.28
2022-08-26T15:34:24.414Z,29.10
2022-08-26T15:36:51.065Z,28.55
2022-08-26T15:39:19.062Z,33.40
2022-08-26T15:41:47.514Z,31.92
2022-08-26T15:44:16.064Z,33.33
2022-08-26T15:46:43.228Z,29.52
2022-08-26T15:49:18.139Z,34.83
2022-08-26T15:51:47.941Z,28.23
2022-08-26T15:54:21.121Z,29.30
2022-08-26T15:56:51.886Z,35.42
2022-08-26T15:59:24.494Z,27.90
2022-08-26T16:01:52.473Z,20.38
2022-08-26T16:04:48.877Z,36.53
2022-08-26T16:11:23.051Z,39.20
2022-08-26T16:13:52.624Z,36.38
2022-08-26T16:16:19.578Z,31.92
2022-08-26T16:18:51.069Z,29.50
2022-08-26T16:21:20.717Z,32.33
2022-08-26T16:28:36.720Z,33.95
2022-08-26T16:31:05.154Z,32.92
2022-08-26T16:33:37.807Z,35.15
2022-08-26T16:36:06.898Z,28.58
2022-08-26T16:38:59.565Z,25.85
2022-08-26T16:43:54.341Z,31.60
2022-08-26T16:46:25.798Z,31.55
2022-08-26T16:48:54.736Z,23.37
2022-08-26T16:51:23.929Z,28.10
2022-08-26T16:53:51.776Z,29.73
2022-08-26T16:56:23.218Z,27.42
2022-08-26T16:58:54.624Z,27.05
2022-08-26T17:01:21.786Z,26.10
2022-08-26T17:03:49.757Z,25.60
2022-08-26T17:06:17.180Z,26.42
2022-08-26T17:08:44.133Z,29.65
2022-08-26T17:11:11.683Z,32.72
2022-08-26T17:13:38.990Z,27.00
2022-08-26T17:16:08.337Z,26.98
2022-08-26T17:18:35.683Z,27.30
2022-08-26T17:21:04.917Z,24.92
2022-08-26T17:23:31.962Z,26.17
2022-08-26T17:25:58.700Z,26.63
2022-08-26T17:28:25.482Z,27.83
2022-08-26T17:30:52.443Z,25.15
2022-08-26T17:33:22.021Z,27.88
2022-08-26T17:35:53.551Z,27.92
2022-08-26T17:38:21.303Z,26.15
2022-08-26T17:40:48.029Z,27.13
2022-08-26T17:43:14.707Z,26.60
2022-08-26T17:45:41.877Z,32.75
2022-08-26T17:48:11.169Z,28.38
2022-08-26T17:50:42.442Z,30.02
2022-08-26T17:53:12.705Z,33.15
2022-08-26T17:55:45.772Z,29.90
2022-08-26T17:58:14.628Z,22.30
2022-08-26T18:00:49.403Z,26.52
2022-08-26T18:03:16.831Z,20.10
2022-08-26T18:05:47.498Z,17.35
2022-08-26T18:08:14.212Z,18.17
2022-08-26T18:10:42.411Z,20.77
2022-08-26T18:13:09.330Z,27.27
2022-08-26T18:24:58.791Z,16.35
2022-08-26T18:27:26.464Z,22.90
2022-08-26T18:29:53.354Z,24.58
2022-08-26T18:32:20.296Z,47.55
2022-08-26T18:34:47.029Z,25.42
2022-08-26T18:39:45.586Z,16.13
2022-08-26T18:43:03.933Z,19.27
2022-08-26T18:45:30.762Z,34.67
2022-08-26T18:47:57.477Z,21.70
2022-08-26T18:50:24.278Z,15.02
2022-08-26T18:52:51.126Z,20.90
2022-08-26T18:55:17.825Z,18.63
2022-08-26T18:57:44.550Z,31.25
2022-08-26T19:00:11.908Z,71.35
2022-08-26T19:02:38.676Z,21.50
2022-08-26T19:05:06.683Z,19.98
2022-08-26T19:07:36.565Z,15.55
2022-08-26T19:10:06.566Z,19.23
2022-08-26T19:12:35.314Z,23.58
2022-08-26T19:15:02.577Z,18.83
2022-08-26T19:17:29.321Z,15.50
2022-08-26T19:19:56.244Z,21.15
2022-08-26T19:22:22.903Z,18.25
2022-08-26T19:24:49.610Z,18.23
2022-08-26T19:27:16.314Z,20.65
2022-08-26T19:29:43.065Z,17.58
2022-08-26T19:32:09.941Z,21.17
2022-08-26T19:34:36.674Z,24.27
2022-08-26T19:37:03.484Z,19.27
2022-08-26T19:39:30.209Z,23.67
2022-08-26T19:41:57.284Z,24.00
2022-08-26T19:44:43.110Z,21.92
2022-08-26T19:47:11.821Z,17.27
2022-08-26T19:49:39.146Z,19.83
2022-08-26T19:52:07.070Z,21.00
2022-08-26T19:54:35.141Z,17.77
2022-08-26T19:57:03.355Z,21.45
2022-08-26T19:59:30.153Z,22.08
2022-08-26T20:02:00.612Z,19.40
2022-08-26T20:04:32.293Z,19.88
2022-08-26T20:07:00.867Z,28.08
2022-08-26T20:09:31.297Z,24.58
2022-08-26T20:11:59.006Z,18.55
2022-08-26T20:14:26.607Z,17.00
2022-08-26T20:16:53.824Z,18.13
2022-08-26T20:19:39.328Z,16.60
2022-08-26T20:22:06.333Z,14.52
2022-08-26T20:24:33.379Z,14.98
2022-08-26T20:27:03.248Z,20.92
2022-08-26T20:29:32.942Z,21.23
2022-08-26T20:31:59.615Z,21.00
2022-08-26T20:34:27.252Z,14.10
2022-08-26T20:36:54.060Z,17.85
2022-08-26T20:39:21.493Z,23.35
2022-08-26T20:41:49.004Z,21.30
2022-08-26T20:44:17.714Z,16.95
2022-08-26T20:46:45.013Z,14.20
2022-08-26T20:49:13.124Z,22.73
2022-08-26T20:51:40.822Z,15.48
2022-08-26T20:54:07.564Z,18.67
2022-08-26T20:56:34.921Z,16.17
2022-08-26T20:59:02.271Z,15.30
2022-08-26T21:01:34.274Z,17.02
2022-08-26T21:04:03.874Z,17.52
2022-08-26T21:06:33.775Z,16.13
2022-08-26T21:09:01.682Z,18.83
2022-08-26T21:11:29.184Z,15.60
2022-08-26T21:14:15.962Z,19.70
2022-08-26T21:16:43.401Z,19.23
2022-08-26T21:19:11.796Z,18.63
2022-08-26T21:21:38.641Z,18.05
2022-08-26T21:24:05.721Z,17.48
2022-08-26T21:26:32.861Z,23.42
2022-08-26T21:29:00.806Z,21.83
2022-08-26T21:31:29.741Z,21.55
2022-08-26T21:33:56.657Z,21.20
2022-08-26T21:36:23.473Z,22.33
2022-08-26T21:38:50.112Z,45.35
2022-08-26T21:41:19.481Z,31.48
2022-08-26T21:43:47.213Z,23.42
2022-08-26T21:46:16.278Z,22.83
2022-08-26T21:48:48.828Z,23.60
2022-08-26T21:51:19.679Z,23.20
2022-08-26T21:53:46.507Z,24.25
2022-08-26T21:56:15.742Z,23.10
2022-08-26T21:58:42.791Z,23.17
2022-08-26T22:01:13.306Z,19.98
2022-08-26T22:03:47.568Z,18.77
2022-08-26T22:06:20.125Z,20.77
2022-08-26T22:08:46.959Z,21.33
2022-08-26T22:11:15.454Z,21.80
2022-08-26T22:13:43.176Z,21.63
2022-08-26T22:16:10.485Z,22.00
2022-08-26T22:18:37.760Z,19.25
2022-08-26T22:21:10.042Z,24.30
2022-08-26T22:23:38.083Z,25.60
2022-08-26T22:26:09.329Z,20.95
2022-08-26T22:28:36.992Z,22.15
2022-08-26T22:31:03.738Z,17.10
2022-08-26T22:33:30.396Z,24.67
2022-08-26T22:35:57.193Z,26.38
2022-08-26T22:38:24.050Z,35.38
2022-08-26T22:40:55.912Z,42.08
2022-08-26T22:43:28.538Z,70.63
2022-08-26T22:48:26.355Z,22.63
2022-08-26T22:50:59.982Z,25.13
2022-08-26T22:53:29.153Z,20.85
2022-08-26T22:55:59.730Z,27.67
2022-08-26T22:58:31.044Z,27.00
2022-08-26T23:00:58.020Z,19.55
2022-08-26T23:03:26.590Z,28.63
2022-08-26T23:05:53.599Z,23.85
2022-08-26T23:08:20.366Z,23.92
2022-08-26T23:10:47.798Z,28.40
2022-08-26T23:13:15.364Z,24.75
2022-08-26T23:15:43.213Z,19.88
2022-08-26T23:18:10.375Z,21.67
2022-08-26T23:20:37.974Z,21.77
2022-08-26T23:23:04.895Z,24.50
2022-08-26T23:25:33.105Z,19.73
2022-08-26T23:28:01.008Z,25.15
2022-08-26T23:30:30.427Z,20.30
2022-08-26T23:32:57.426Z,19.73
2022-08-26T23:35:24.385Z,20.00
2022-08-26T23:37:53.284Z,21.45
2022-08-26T23:40:22.118Z,19.40
2022-08-26T23:42:48.870Z,20.98
2022-08-26T23:45:18.281Z,21.05
2022-08-26T23:47:50.402Z,17.35
2022-08-26T23:50:19.090Z,21.40
2022-08-26T23:53:04.318Z,37.03
2022-08-26T23:55:33.935Z,40.90
2022-08-26T23:58:01.941Z,22.52
